createdAt,value
2023-05-02T00:00:44.763Z,22.47
2023-05-02T00:03:12.911Z,19.63
2023-05-02T00:05:41.840Z,21.30
2023-05-02T00:08:10.076Z,21.00
2023-05-02T00:10:37.871Z,24.27
2023-05-02T00:13:05.651Z,27.50
2023-05-02T00:15:33.418Z,26.20
2023-05-02T00:18:01.163Z,27.30
2023-05-02T00:20:29.078Z,27.77
2023-05-02T00:22:56.974Z,28.93
2023-05-02T00:25:24.811Z,28.83
2023-05-02T00:27:52.527Z,29.43
2023-05-02T00:30:20.542Z,30.23
2023-05-02T00:32:48.694Z,29.83
2023-05-02T00:35:16.607Z,29.53
2023-05-02T00:37:44.473Z,28.90
2023-05-02T00:40:14.984Z,28.57
2023-05-02T00:42:42.730Z,30.30
2023-05-02T00:45:11.668Z,32.37
2023-05-02T00:47:40.189Z,29.97
2023-05-02T00:50:09.735Z,26.53
2023-05-02T00:52:38.048Z,28.63
2023-05-02T00:57:56.405Z,27.10
2023-05-02T01:00:30.671Z,28.77
2023-05-02T01:03:08.885Z,27.80
2023-05-02T01:05:44.378Z,25.50
2023-05-02T01:08:20.142Z,25.57
2023-05-02T01:10:52.980Z,27.40
2023-05-02T01:13:23.992Z,29.90
2023-05-02T01:15:53.429Z,30.27
2023-05-02T01:18:24.263Z,27.17
2023-05-02T01:20:57.002Z,29.80
2023-05-02T01:26:17.565Z,29.57
2023-05-02T01:28:59.231Z,29.17
2023-05-02T01:31:28.570Z,34.30
2023-05-02T01:33:58.438Z,30.80
2023-05-02T01:39:18.846Z,30.03
2023-05-02T01:41:49.124Z,32.40
2023-05-02T01:47:09.488Z,34.10
2023-05-02T01:49:40.655Z,33.57
2023-05-02T01:52:11.135Z,35.00
2023-05-02T01:54:40.508Z,34.03
2023-05-02T01:57:11.293Z,34.40
2023-05-02T02:02:30.013Z,31.70
2023-05-02T02:07:48.214Z,32.83
2023-05-02T02:10:17.103Z,30.00
2023-05-02T02:12:51.995Z,32.07
2023-05-02T02:15:26.374Z,33.63
2023-05-02T02:18:00.014Z,32.30
2023-05-02T02:20:31.201Z,30.77
2023-05-02T02:23:02.858Z,32.80
2023-05-02T02:25:30.928Z,29.27
2023-05-02T02:27:59.114Z,31.70
2023-05-02T02:30:27.180Z,32.67
2023-05-02T02:32:55.027Z,27.67
2023-05-02T02:35:25.812Z,29.17
2023-05-02T02:38:02.712Z,28.40
2023-05-02T02:40:37.631Z,28.40
2023-05-02T02:43:12.342Z,26.67
2023-05-02T02:45:49.244Z,29.57
2023-05-02T02:48:27.327Z,26.17
2023-05-02T02:51:04.654Z,28.00
2023-05-02T02:53:44.961Z,26.03
2023-05-02T02:56:19.598Z,26.47
2023-05-02T02:58:55.060Z,25.47
2023-05-02T03:01:24.911Z,23.53
2023-05-02T03:06:42.759Z,21.83
2023-05-02T03:12:01.964Z,23.70
2023-05-02T03:14:29.959Z,21.23
2023-05-02T03:16:58.402Z,20.73
2023-05-02T03:19:26.692Z,22.77
2023-05-02T03:21:54.495Z,23.43
2023-05-02T03:24:22.398Z,21.13
2023-05-02T03:26:50.114Z,26.03
2023-05-02T03:29:17.881Z,22.37
2023-05-02T03:31:45.707Z,23.20
2023-05-02T03:34:13.515Z,22.87
2023-05-02T03:36:41.256Z,22.67
2023-05-02T03:39:09.043Z,21.50
2023-05-02T03:41:36.777Z,23.60
2023-05-02T03:44:05.348Z,22.50
2023-05-02T03:46:33.138Z,21.77
2023-05-02T03:49:00.945Z,21.53
2023-05-02T03:51:28.658Z,21.67
2023-05-02T03:53:56.574Z,21.47
2023-05-02T03:56:24.324Z,23.50
2023-05-02T03:58:52.147Z,22.93
2023-05-02T04:01:20.161Z,20.10
2023-05-02T04:03:47.974Z,19.43
2023-05-02T04:06:15.846Z,20.97
2023-05-02T04:08:43.729Z,22.47
2023-05-02T04:11:11.462Z,19.30
2023-05-02T04:13:39.196Z,19.23
2023-05-02T04:16:08.481Z,17.07
2023-05-02T04:18:36.206Z,19.93
2023-05-02T04:21:04.226Z,17.60
2023-05-02T04:23:32.534Z,17.57
2023-05-02T04:26:00.493Z,14.90
2023-05-02T04:28:28.409Z,14.70
2023-05-02T04:30:57.432Z,11.70
2023-05-02T04:33:25.268Z,8.73
2023-05-02T04:35:53.057Z,8.37
2023-05-02T04:38:20.955Z,7.73
2023-05-02T04:40:53.166Z,5.43
2023-05-02T04:43:23.145Z,5.27
2023-05-02T04:45:52.684Z,5.20
2023-05-02T04:48:20.996Z,4.97
2023-05-02T04:50:50.260Z,3.70
2023-05-02T04:53:18.000Z,5.00
2023-05-02T04:55:46.007Z,6.47
2023-05-02T04:58:13.800Z,5.70
2023-05-02T05:00:41.728Z,6.10
2023-05-02T05:03:09.566Z,5.00
2023-05-02T05:05:37.628Z,4.33
2023-05-02T05:08:06.070Z,6.27
2023-05-02T05:13:21.668Z,6.90
2023-05-02T05:15:49.510Z,5.03
2023-05-02T05:18:17.397Z,5.80
2023-05-02T05:20:45.099Z,4.77
2023-05-02T05:23:12.896Z,7.20
2023-05-02T05:25:41.532Z,4.13
2023-05-02T05:28:10.614Z,3.60
2023-05-02T05:30:38.405Z,7.80
2023-05-02T05:33:06.254Z,6.67
2023-05-02T05:35:34.049Z,6.10
2023-05-02T05:38:01.788Z,3.60
2023-05-02T05:40:29.926Z,9.47
2023-05-02T05:42:58.066Z,5.53
2023-05-02T05:45:26.149Z,6.83
2023-05-02T05:47:55.385Z,5.40
2023-05-02T05:50:23.171Z,7.20
2023-05-02T05:52:51.479Z,6.17
2023-05-02T05:55:19.518Z,4.97
2023-05-02T05:57:47.241Z,3.93
2023-05-02T06:00:16.853Z,5.20
2023-05-02T06:02:44.722Z,5.87
2023-05-02T06:05:12.784Z,6.33
2023-05-02T06:07:40.827Z,5.77
2023-05-02T06:10:10.239Z,5.50
2023-05-02T06:12:38.024Z,3.57
2023-05-02T06:15:07.779Z,5.07
2023-05-02T06:17:35.917Z,5.07
2023-05-02T06:20:04.246Z,2.93
2023-05-02T06:22:33.545Z,3.07
2023-05-02T06:25:01.320Z,6.07
2023-05-02T06:27:30.276Z,4.23
2023-05-02T06:29:59.751Z,2.30
2023-05-02T06:32:31.450Z,5.77
2023-05-02T06:34:59.235Z,5.03
2023-05-02T06:37:26.967Z,6.53
2023-05-02T06:39:54.735Z,3.90
2023-05-02T06:42:22.558Z,5.60
2023-05-02T06:44:51.676Z,7.37
2023-05-02T06:50:08.644Z,9.03
2023-05-02T06:52:36.985Z,6.50
2023-05-02T06:55:06.514Z,7.27
2023-05-02T06:57:34.251Z,11.10
2023-05-02T07:00:02.930Z,7.27
2023-05-02T07:02:30.945Z,9.03
2023-05-02T07:04:58.775Z,9.67
2023-05-02T07:07:26.762Z,6.57
2023-05-02T07:09:54.472Z,9.33
2023-05-02T07:12:22.429Z,10.20
2023-05-02T07:14:50.348Z,12.43
2023-05-02T07:17:18.149Z,7.93
2023-05-02T07:22:35.624Z,13.50
2023-05-02T07:25:04.069Z,7.23
2023-05-02T07:27:32.113Z,9.60
2023-05-02T07:30:01.151Z,9.73
2023-05-02T07:32:29.389Z,11.53
2023-05-02T07:34:57.222Z,9.17
2023-05-02T07:37:25.068Z,8.30
2023-05-02T07:39:52.808Z,9.60
2023-05-02T07:42:20.537Z,9.03
2023-05-02T07:44:48.350Z,9.40
2023-05-02T07:47:16.354Z,8.00
2023-05-02T07:49:44.202Z,9.50
2023-05-02T07:52:11.917Z,8.90
2023-05-02T07:54:39.727Z,9.50
2023-05-02T07:57:08.036Z,9.27
2023-05-02T07:59:35.871Z,8.20
2023-05-02T08:02:03.626Z,6.80
2023-05-02T08:04:31.418Z,7.33
2023-05-02T08:06:59.811Z,8.40
2023-05-02T08:09:27.594Z,9.70
2023-05-02T08:11:55.406Z,10.40
2023-05-02T08:14:23.164Z,11.57
2023-05-02T08:16:51.346Z,11.27
2023-05-02T08:19:19.525Z,9.07
2023-05-02T08:21:47.340Z,5.70
2023-05-02T08:24:15.166Z,9.00
2023-05-02T08:26:43.517Z,6.23
2023-05-02T08:29:11.887Z,7.13
2023-05-02T08:31:41.165Z,7.13
2023-05-02T08:34:09.196Z,7.70
2023-05-02T08:36:37.782Z,8.63
2023-05-02T08:39:07.360Z,7.47
2023-05-02T08:41:35.333Z,9.27
2023-05-02T08:44:03.719Z,7.87
2023-05-02T08:46:31.830Z,9.33
2023-05-02T08:48:59.840Z,9.73
2023-05-02T08:51:29.707Z,5.80
2023-05-02T08:53:58.244Z,6.67
2023-05-02T08:56:26.544Z,8.93
2023-05-02T08:58:54.352Z,6.10
2023-05-02T09:01:24.372Z,5.00
2023-05-02T09:03:53.980Z,4.20
2023-05-02T09:06:23.249Z,8.60
2023-05-02T09:08:52.581Z,5.67
2023-05-02T09:11:21.491Z,7.10
2023-05-02T09:13:51.496Z,7.73
2023-05-02T09:16:22.044Z,5.63
2023-05-02T09:18:51.822Z,5.43
2023-05-02T09:24:17.816Z,4.57
2023-05-02T09:26:58.534Z,5.73
2023-05-02T09:29:29.934Z,4.13
2023-05-02T09:31:57.832Z,6.03
2023-05-02T09:34:25.659Z,3.07
2023-05-02T09:36:53.890Z,4.10
2023-05-02T09:39:25.509Z,3.67
2023-05-02T09:41:54.684Z,3.73
2023-05-02T09:47:26.513Z,3.90
2023-05-02T09:49:54.291Z,5.10
2023-05-02T09:52:22.760Z,4.70
2023-05-02T09:54:51.959Z,7.10
2023-05-02T09:57:20.029Z,3.20
2023-05-02T09:59:55.364Z,2.67
2023-05-02T10:02:24.349Z,8.83
2023-05-02T10:04:53.266Z,8.77
2023-05-02T10:07:21.960Z,6.07
2023-05-02T10:09:53.938Z,8.47
2023-05-02T10:12:26.273Z,5.50
2023-05-02T10:15:00.026Z,7.77
2023-05-02T10:17:31.503Z,6.73
2023-05-02T10:22:47.414Z,5.60
2023-05-02T10:25:15.571Z,4.67
2023-05-02T10:27:43.704Z,6.27
2023-05-02T10:30:13.807Z,6.57
2023-05-02T10:32:43.111Z,6.57
2023-05-02T10:35:12.317Z,8.33
2023-05-02T10:37:44.385Z,9.27
2023-05-02T10:40:13.026Z,6.37
2023-05-02T10:42:42.981Z,5.27
2023-05-02T10:45:13.869Z,10.87
2023-05-02T10:47:41.917Z,7.77
2023-05-02T10:50:10.722Z,5.53
2023-05-02T10:52:40.494Z,7.17
2023-05-02T10:55:22.254Z,5.80
2023-05-02T10:58:21.193Z,7.33
2023-05-02T11:00:49.182Z,8.27
2023-05-02T11:03:54.739Z,6.90
2023-05-02T11:06:22.945Z,7.03
2023-05-02T11:08:50.922Z,5.33
2023-05-02T11:14:49.371Z,6.97
2023-05-02T11:17:18.359Z,9.17
2023-05-02T11:20:32.632Z,6.73
2023-05-02T11:23:25.260Z,9.50
2023-05-02T11:25:55.510Z,5.70
2023-05-02T11:28:46.826Z,7.03
2023-05-02T11:31:57.508Z,6.50
2023-05-02T11:34:25.801Z,6.07
2023-05-02T11:36:53.632Z,6.50
2023-05-02T11:39:22.309Z,5.93
2023-05-02T11:41:50.533Z,15.60
2023-05-02T11:44:18.461Z,9.63
2023-05-02T11:46:46.411Z,6.80
2023-05-02T11:49:15.116Z,7.30
2023-05-02T11:54:31.645Z,7.30
2023-05-02T11:57:02.389Z,11.87
2023-05-02T11:59:30.233Z,8.43
2023-05-02T12:01:58.019Z,7.73
2023-05-02T12:04:26.358Z,12.90
2023-05-02T12:06:57.459Z,6.63
2023-05-02T12:09:25.390Z,7.07
2023-05-02T12:11:54.206Z,7.10
2023-05-02T12:17:16.997Z,5.77
2023-05-02T12:19:45.329Z,7.50
2023-05-02T12:22:13.802Z,10.17
2023-05-02T12:24:42.823Z,7.87
2023-05-02T12:27:12.601Z,9.47
2023-05-02T12:29:41.588Z,10.37
2023-05-02T12:32:09.364Z,11.37
2023-05-02T12:34:38.286Z,8.70
2023-05-02T12:37:07.369Z,7.50
2023-05-02T12:39:39.656Z,9.03
2023-05-02T12:44:57.507Z,9.00
2023-05-02T12:50:14.337Z,8.23
2023-05-02T12:52:50.144Z,8.50
2023-05-02T12:55:18.487Z,8.70
2023-05-02T12:57:46.408Z,12.33
2023-05-02T13:00:17.480Z,8.97
2023-05-02T13:05:32.828Z,9.43
2023-05-02T13:08:00.684Z,8.90
2023-05-02T13:10:28.542Z,7.13
2023-05-02T13:12:56.713Z,6.40
2023-05-02T13:15:24.514Z,7.67
2023-05-02T13:17:52.557Z,10.53
2023-05-02T13:20:20.790Z,6.47
2023-05-02T13:22:48.602Z,7.83
2023-05-02T13:25:16.413Z,10.80
2023-05-02T13:27:45.380Z,8.60
2023-05-02T13:30:13.827Z,7.90
2023-05-02T13:32:41.782Z,8.07
2023-05-02T13:35:13.233Z,7.13
2023-05-02T13:37:41.225Z,7.40
2023-05-02T13:40:11.368Z,6.93
2023-05-02T13:42:39.238Z,7.17
2023-05-02T13:47:55.441Z,13.50
2023-05-02T13:50:23.469Z,6.43
2023-05-02T13:52:51.320Z,10.03
2023-05-02T13:55:19.587Z,9.70
2023-05-02T13:57:47.324Z,7.73
2023-05-02T14:00:17.140Z,8.33
2023-05-02T14:02:47.780Z,10.77
2023-05-02T14:05:17.818Z,10.67
2023-05-02T14:07:46.285Z,7.07
2023-05-02T14:10:14.503Z,10.17
2023-05-02T14:12:42.296Z,9.53
2023-05-02T14:17:57.697Z,7.10
2023-05-02T14:20:25.656Z,6.40
2023-05-02T14:22:53.710Z,6.50
2023-05-02T14:25:21.536Z,8.23
2023-05-02T14:27:49.389Z,11.40
2023-05-02T14:30:18.114Z,7.17
2023-05-02T14:32:46.998Z,8.80
2023-05-02T14:38:05.029Z,6.70
2023-05-02T14:43:22.103Z,5.37
2023-05-02T14:45:50.085Z,7.13
2023-05-02T14:51:07.511Z,6.40
2023-05-02T14:53:35.718Z,9.47
2023-05-02T14:56:04.029Z,5.90
2023-05-02T14:58:32.259Z,11.50
2023-05-02T15:01:00.281Z,6.17
2023-05-02T15:03:28.827Z,5.73
2023-05-02T15:08:47.495Z,5.50
2023-05-02T15:11:15.726Z,6.13
2023-05-02T15:16:32.147Z,8.50
2023-05-02T15:19:00.151Z,5.00
2023-05-02T15:21:28.428Z,6.63
2023-05-02T15:26:46.310Z,10.97
2023-05-02T15:29:14.195Z,7.03
2023-05-02T15:31:42.202Z,7.07
2023-05-02T15:34:10.319Z,11.57
2023-05-02T15:36:38.272Z,8.80
2023-05-02T15:39:06.241Z,5.30
2023-05-02T15:41:34.248Z,6.93
2023-05-02T15:44:02.133Z,6.77
2023-05-02T15:46:30.133Z,6.27
2023-05-02T15:48:58.267Z,6.67
2023-05-02T15:51:26.434Z,6.37
2023-05-02T15:53:54.701Z,6.00
2023-05-02T15:56:22.502Z,5.23
2023-05-02T15:58:50.494Z,3.83
2023-05-02T16:01:20.358Z,4.63
2023-05-02T16:03:48.835Z,6.77
2023-05-02T16:06:16.798Z,7.60
2023-05-02T16:08:44.645Z,4.23
2023-05-02T16:11:12.911Z,3.93
2023-05-02T16:13:40.769Z,5.97
2023-05-02T16:16:08.818Z,5.03
2023-05-02T16:18:36.868Z,4.97
2023-05-02T16:21:05.379Z,6.17
2023-05-02T16:23:33.323Z,6.70
2023-05-02T16:26:01.496Z,5.50
2023-05-02T16:28:30.141Z,8.00
2023-05-02T16:30:58.075Z,3.77
2023-05-02T16:33:26.000Z,4.90
2023-05-02T16:36:01.748Z,5.37
2023-05-02T16:38:29.692Z,7.43
2023-05-02T16:40:57.696Z,4.40
2023-05-02T16:43:26.021Z,5.37
2023-05-02T16:46:01.103Z,6.10
2023-05-02T16:48:29.481Z,5.60
2023-05-02T16:50:57.301Z,4.40
2023-05-02T16:53:26.150Z,5.40
2023-05-02T16:55:54.049Z,2.90
2023-05-02T16:58:22.315Z,5.60
2023-05-02T17:00:50.096Z,7.10
2023-05-02T17:03:18.005Z,4.93
2023-05-02T17:05:46.025Z,5.57
2023-05-02T17:08:14.445Z,5.10
2023-05-02T17:10:42.350Z,5.40
2023-05-02T17:13:10.579Z,5.63
2023-05-02T17:15:38.666Z,6.57
2023-05-02T17:18:06.785Z,6.30
2023-05-02T17:20:35.487Z,8.43
2023-05-02T17:23:03.426Z,4.60
2023-05-02T17:25:31.792Z,6.47
2023-05-02T17:30:46.147Z,3.47
2023-05-02T17:33:14.229Z,4.27
2023-05-02T17:35:42.204Z,4.70
2023-05-02T17:38:10.706Z,5.77
2023-05-02T17:40:38.501Z,4.43
2023-05-02T17:43:06.737Z,4.50
2023-05-02T17:45:35.735Z,4.63
2023-05-02T17:48:04.161Z,2.33
2023-05-02T17:50:35.963Z,5.77
2023-05-02T17:53:04.643Z,5.33
2023-05-02T17:55:37.040Z,3.53
2023-05-02T17:58:05.409Z,5.93
2023-05-02T18:00:33.275Z,5.83
2023-05-02T18:03:01.979Z,5.67
2023-05-02T18:05:38.590Z,3.90
2023-05-02T18:08:07.158Z,5.13
2023-05-02T18:10:37.911Z,4.50
2023-05-02T18:13:06.182Z,4.67
2023-05-02T18:15:34.049Z,4.50
2023-05-02T18:18:02.247Z,3.23
2023-05-02T18:20:30.277Z,4.37
2023-05-02T18:22:59.958Z,4.43
2023-05-02T18:25:28.236Z,4.50
2023-05-02T18:27:56.404Z,9.20
2023-05-02T18:30:24.511Z,5.53
2023-05-02T18:32:52.515Z,7.57
2023-05-02T18:35:20.974Z,4.33
2023-05-02T18:37:48.914Z,3.87
2023-05-02T18:43:04.373Z,3.83
2023-05-02T18:45:32.717Z,5.00
2023-05-02T18:48:00.851Z,3.77
2023-05-02T18:50:28.947Z,3.83
2023-05-02T18:52:56.837Z,3.80
2023-05-02T18:55:25.562Z,8.10
2023-05-02T18:57:53.594Z,2.93
2023-05-02T19:00:22.755Z,3.80
2023-05-02T19:02:53.206Z,4.53
2023-05-02T19:05:21.697Z,5.03
2023-05-02T19:07:49.568Z,4.60
2023-05-02T19:10:17.517Z,3.63
2023-05-02T19:12:47.190Z,5.90
2023-05-02T19:18:04.861Z,4.30
2023-05-02T19:20:32.956Z,5.83
2023-05-02T19:23:18.423Z,4.37
2023-05-02T19:25:47.759Z,4.03
2023-05-02T19:28:16.866Z,4.23
2023-05-02T19:30:45.438Z,3.90
2023-05-02T19:33:13.808Z,3.00
2023-05-02T19:38:28.931Z,4.77
2023-05-02T19:40:56.918Z,4.43
2023-05-02T19:43:24.930Z,4.53
2023-05-02T19:45:53.315Z,4.23
2023-05-02T19:48:22.321Z,5.37
2023-05-02T19:50:50.358Z,3.90
2023-05-02T19:53:18.463Z,3.47
2023-05-02T19:55:46.598Z,5.43
2023-05-02T19:58:14.777Z,4.47
2023-05-02T20:00:43.188Z,4.40
2023-05-02T20:03:11.413Z,5.93
2023-05-02T20:05:40.988Z,3.93
2023-05-02T20:08:08.993Z,3.63
2023-05-02T20:10:37.434Z,5.60
2023-05-02T20:13:05.456Z,6.07
2023-05-02T20:15:33.400Z,3.37
2023-05-02T20:18:02.562Z,4.00
2023-05-02T20:20:31.229Z,4.33
2023-05-02T20:22:59.320Z,4.43
2023-05-02T20:25:27.987Z,4.63
2023-05-02T20:27:55.952Z,4.37
2023-05-02T20:30:24.059Z,4.40
2023-05-02T20:32:52.635Z,2.73
2023-05-02T20:35:20.974Z,4.90
2023-05-02T20:37:49.183Z,3.43
2023-05-02T20:40:20.597Z,4.60
2023-05-02T20:42:48.368Z,4.17
2023-05-02T20:45:18.209Z,8.10
2023-05-02T20:47:46.967Z,3.60
2023-05-02T20:50:16.444Z,4.60
2023-05-02T20:52:44.624Z,4.53
2023-05-02T20:57:59.136Z,1.80
2023-05-02T21:00:28.224Z,4.90
2023-05-02T21:02:56.304Z,3.57
2023-05-02T21:05:24.437Z,3.23
2023-05-02T21:07:52.382Z,2.37
2023-05-02T21:10:21.838Z,4.40
2023-05-02T21:12:49.765Z,3.87
2023-05-02T21:15:17.987Z,3.87
2023-05-02T21:17:45.941Z,4.80
2023-05-02T21:20:14.632Z,5.00
2023-05-02T21:22:42.487Z,6.93
2023-05-02T21:25:11.821Z,3.43
2023-05-02T21:27:39.887Z,5.23
2023-05-02T21:32:55.600Z,8.50
2023-05-02T21:35:23.635Z,2.20
2023-05-02T21:37:51.692Z,4.13
2023-05-02T21:43:06.150Z,4.07
2023-05-02T21:45:34.180Z,5.57
2023-05-02T21:48:02.207Z,2.50
2023-05-02T21:50:30.163Z,3.50
2023-05-02T21:55:45.396Z,6.83
2023-05-02T22:00:58.164Z,6.70
2023-05-02T22:03:26.626Z,3.47
2023-05-02T22:05:54.727Z,2.80
2023-05-02T22:08:23.524Z,5.77
2023-05-02T22:10:52.330Z,4.83
2023-05-02T22:13:21.347Z,7.20
2023-05-02T22:18:36.358Z,4.97
2023-05-02T22:21:07.585Z,5.70
2023-05-02T22:23:36.425Z,4.07
2023-05-02T22:26:05.087Z,4.37
2023-05-02T22:28:33.733Z,4.47
2023-05-02T22:31:02.591Z,2.77
2023-05-02T22:33:30.413Z,2.37
2023-05-02T22:35:58.258Z,4.73
2023-05-02T22:38:26.116Z,3.30
2023-05-02T22:40:53.934Z,3.40
2023-05-02T22:43:21.710Z,3.50
2023-05-02T22:45:50.605Z,4.93
2023-05-02T22:48:18.725Z,3.30
2023-05-02T22:50:47.897Z,4.67
2023-05-02T22:53:15.892Z,4.80
2023-05-02T22:55:43.872Z,3.60
2023-05-02T22:58:11.866Z,3.63
2023-05-02T23:00:39.788Z,5.20
2023-05-02T23:03:07.774Z,3.13
2023-05-02T23:05:35.625Z,5.37
2023-05-02T23:10:51.588Z,5.40
2023-05-02T23:13:20.058Z,4.60
2023-05-02T23:18:40.880Z,5.00
2023-05-02T23:21:14.821Z,4.93
2023-05-02T23:23:43.000Z,5.90
2023-05-02T23:26:11.465Z,5.13
2023-05-02T23:28:39.967Z,4.20
2023-05-02T23:31:08.665Z,9.80
2023-05-02T23:33:37.152Z,4.53
2023-05-02T23:36:07.090Z,3.77
2023-05-02T23:38:36.897Z,4.13
2023-05-02T23:41:05.094Z,4.23
2023-05-02T23:43:32.943Z,4.93
2023-05-02T23:46:01.396Z,5.57
2023-05-02T23:48:29.174Z,4.90
2023-05-02T23:50:57.476Z,6.63
2023-05-02T23:53:25.844Z,4.00
2023-05-02T23:55:53.708Z,4.07
2023-05-02T23:58:21.436Z,2.83
